createdAt,value
2018-08-23T00:01:33.775Z,100911.90
2018-08-23T00:04:07.677Z,100909.31
2018-08-23T00:06:37.246Z,100910.75
2018-08-23T00:09:08.522Z,100906.45
2018-08-23T00:11:41.090Z,100905.69
2018-08-23T00:14:10.349Z,100900.93
2018-08-23T00:16:46.939Z,100897.50
2018-08-23T00:19:16.475Z,100896.25
2018-08-23T00:21:48.072Z,100893.66
2018-08-23T00:24:24.144Z,100889.85
2018-08-23T00:26:57.448Z,100882.89
2018-08-23T00:29:28.236Z,100882.13
2018-08-23T00:32:02.499Z,100880.11
2018-08-23T00:34:32.307Z,100875.91
2018-08-23T00:37:01.826Z,100879.22
2018-08-23T00:39:30.573Z,100884.34
2018-08-23T00:42:04.397Z,100884.23
2018-08-23T00:44:48.112Z,100882.31
2018-08-23T00:47:17.535Z,100877.52
2018-08-23T00:49:46.052Z,100879.34
2018-08-23T00:52:17.674Z,100881.14
2018-08-23T00:54:52.979Z,100881.63
2018-08-23T00:57:21.578Z,100877.78
2018-08-23T00:59:55.180Z,100872.64
2018-08-23T01:02:23.720Z,100874.08
2018-08-23T01:04:52.459Z,100868.34
2018-08-23T01:07:22.741Z,100867.12
2018-08-23T01:09:51.230Z,100872.62
2018-08-23T01:12:20.669Z,100870.49
2018-08-23T01:14:51.976Z,100872.88
2018-08-23T01:17:20.634Z,100873.44
2018-08-23T01:19:59.298Z,100874.84
2018-08-23T01:22:27.773Z,100868.34
2018-08-23T01:24:56.901Z,100870.62
2018-08-23T01:27:30.695Z,100865.44
2018-08-23T01:29:59.303Z,100855.92
2018-08-23T01:32:30.952Z,100857.33
2018-08-23T01:34:59.476Z,100853.06
2018-08-23T01:37:36.942Z,100851.42
2018-08-23T01:40:08.404Z,100843.44
2018-08-23T01:42:38.842Z,100845.90
2018-08-23T01:45:08.994Z,100846.53
2018-08-23T01:47:55.717Z,100848.88
2018-08-23T01:50:25.082Z,100844.51
2018-08-23T01:52:54.654Z,100835.27
2018-08-23T01:55:24.161Z,100834.05
2018-08-23T01:57:53.040Z,100833.28
2018-08-23T02:00:23.129Z,100833.35
2018-08-23T02:02:51.682Z,100837.20
2018-08-23T02:05:20.190Z,100835.25
2018-08-23T02:07:48.969Z,100828.78
2018-08-23T02:10:17.687Z,100829.27
2018-08-23T02:12:57.593Z,100824.52
2018-08-23T02:15:26.559Z,100827.31
2018-08-23T02:17:59.169Z,100830.92
2018-08-23T02:20:28.557Z,100834.52
2018-08-23T02:22:57.163Z,100827.95
2018-08-23T02:25:25.949Z,100810.14
2018-08-23T02:28:03.790Z,100822.80
2018-08-23T02:30:44.551Z,100826.89
2018-08-23T02:33:13.940Z,100820.78
2018-08-23T02:36:05.754Z,100809.38
2018-08-23T02:38:35.353Z,100815.25
2018-08-23T02:41:04.039Z,100804.69
2018-08-23T02:43:32.833Z,100795.10
2018-08-23T02:46:03.838Z,100802.69
2018-08-23T02:48:32.300Z,100795.73
2018-08-23T02:51:01.584Z,100801.12
2018-08-23T02:53:39.257Z,100798.56
2018-08-23T02:56:10.443Z,100793.84
2018-08-23T02:58:48.095Z,100783.39
2018-08-23T03:01:16.864Z,100785.66
2018-08-23T03:04:02.891Z,100787.52
2018-08-23T03:06:36.819Z,100783.70
2018-08-23T03:09:07.461Z,100780.66
2018-08-23T03:11:37.421Z,100783.39
2018-08-23T03:14:06.447Z,100780.84
2018-08-23T03:16:48.484Z,100775.59
2018-08-23T03:19:17.318Z,100771.67
2018-08-23T03:21:46.559Z,100774.89
2018-08-23T03:24:20.923Z,100768.35
2018-08-23T03:26:49.774Z,100772.41
2018-08-23T03:29:18.570Z,100768.59
2018-08-23T03:31:47.162Z,100770.94
2018-08-23T03:34:16.107Z,100761.70
2018-08-23T03:36:44.577Z,100770.23
2018-08-23T03:39:14.283Z,100766.80
2018-08-23T03:41:43.227Z,100768.69
2018-08-23T03:44:22.597Z,100767.92
2018-08-23T03:46:53.955Z,100765.89
2018-08-23T03:49:36.377Z,100773.64
2018-08-23T03:52:05.061Z,100773.88
2018-08-23T03:54:33.932Z,100770.83
2018-08-23T03:57:17.666Z,100768.63
2018-08-23T03:59:47.779Z,100766.05
2018-08-23T04:02:17.593Z,100765.20
2018-08-23T04:04:48.178Z,100774.50
2018-08-23T04:07:16.945Z,100766.70
2018-08-23T04:09:46.073Z,100765.05
2018-08-23T04:12:14.997Z,100760.47
2018-08-23T04:14:43.994Z,100760.53
2018-08-23T04:17:12.721Z,100760.60
2018-08-23T04:19:46.640Z,100749.59
2018-08-23T04:22:15.439Z,100750.53
2018-08-23T04:24:49.281Z,100751.93
2018-08-23T04:27:19.496Z,100748.05
2018-08-23T04:29:49.213Z,100747.28
2018-08-23T04:32:26.590Z,100747.34
2018-08-23T04:34:55.876Z,100743.81
2018-08-23T04:37:24.799Z,100740.32
2018-08-23T04:40:05.878Z,100738.29
2018-08-23T04:42:34.912Z,100737.06
2018-08-23T04:45:13.222Z,100738.42
2018-08-23T04:47:50.576Z,100733.11
2018-08-23T04:50:19.776Z,100736.38
2018-08-23T04:52:48.704Z,100733.02
2018-08-23T04:55:17.912Z,100734.73
2018-08-23T04:57:46.619Z,100731.14
2018-08-23T05:00:15.582Z,100739.11
2018-08-23T05:02:44.523Z,100739.52
2018-08-23T05:05:13.756Z,100736.45
2018-08-23T05:07:42.520Z,100735.94
2018-08-23T05:10:11.612Z,100734.05
2018-08-23T05:12:41.114Z,100735.45
2018-08-23T05:15:11.472Z,100736.94
2018-08-23T05:17:40.696Z,100734.73
2018-08-23T05:20:09.907Z,100733.90
2018-08-23T05:22:39.831Z,100736.38
2018-08-23T05:25:16.832Z,100729.30
2018-08-23T05:28:01.830Z,100733.53
2018-08-23T05:30:31.571Z,100731.09
2018-08-23T05:33:05.888Z,100740.39
2018-08-23T05:35:34.766Z,100736.72
2018-08-23T05:38:03.507Z,100733.91
2018-08-23T05:40:37.285Z,100735.40
2018-08-23T05:43:05.963Z,100740.25
2018-08-23T05:45:40.431Z,100737.59
2018-08-23T05:48:21.332Z,100732.19
2018-08-23T05:50:50.161Z,100730.80
2018-08-23T05:53:19.797Z,100732.02
2018-08-23T05:55:51.253Z,100723.53
2018-08-23T05:58:24.659Z,100727.17
2018-08-23T06:00:54.475Z,100728.97
2018-08-23T06:03:23.124Z,100722.93
2018-08-23T06:05:52.179Z,100721.67
2018-08-23T06:08:21.008Z,100721.09
2018-08-23T06:10:52.465Z,100720.84
2018-08-23T06:13:21.369Z,100721.92
2018-08-23T06:15:52.749Z,100719.97
2018-08-23T06:18:22.141Z,100722.94
2018-08-23T06:20:51.762Z,100726.51
2018-08-23T06:23:21.129Z,100729.86
2018-08-23T06:25:50.362Z,100721.57
2018-08-23T06:28:22.132Z,100724.92
2018-08-23T06:30:50.958Z,100731.56
2018-08-23T06:34:01.146Z,100731.39
2018-08-23T06:36:32.257Z,100738.97
2018-08-23T06:39:01.020Z,100730.12
2018-08-23T06:41:30.232Z,100726.55
2018-08-23T06:44:00.043Z,100731.06
2018-08-23T06:46:28.900Z,100720.06
2018-08-23T06:48:57.916Z,100714.42
2018-08-23T06:51:26.841Z,100714.93
2018-08-23T06:53:59.829Z,100711.27
2018-08-23T06:56:28.722Z,100704.36
2018-08-23T06:58:58.123Z,100707.59
2018-08-23T07:01:36.209Z,100703.03
2018-08-23T07:04:09.264Z,100701.63
2018-08-23T07:06:38.533Z,100703.73
2018-08-23T07:09:10.836Z,100706.69
2018-08-23T07:11:40.450Z,100701.56
2018-08-23T07:14:16.206Z,100706.24
2018-08-23T07:16:46.426Z,100700.66
2018-08-23T07:19:26.730Z,100702.56
2018-08-23T07:21:56.129Z,100705.29
2018-08-23T07:24:53.920Z,100703.69
2018-08-23T07:27:23.450Z,100703.50
2018-08-23T07:29:54.604Z,100705.81
2018-08-23T07:32:27.973Z,100705.44
2018-08-23T07:35:08.465Z,100708.47
2018-08-23T07:37:38.699Z,100709.92
2018-08-23T07:40:10.238Z,100711.63
2018-08-23T07:42:40.088Z,100706.41
2018-08-23T07:45:09.525Z,100716.11
2018-08-23T07:47:41.201Z,100705.48
2018-08-23T07:50:10.219Z,100714.15
2018-08-23T07:52:41.617Z,100713.38
2018-08-23T07:55:10.429Z,100710.14
2018-08-23T07:57:39.885Z,100711.58
2018-08-23T08:00:41.616Z,100709.69
2018-08-23T08:03:12.115Z,100709.70
2018-08-23T08:05:45.915Z,100706.67
2018-08-23T08:08:14.867Z,100705.06
2018-08-23T08:10:45.543Z,100711.94
2018-08-23T08:13:14.401Z,100710.12
2018-08-23T08:15:43.322Z,100715.26
2018-08-23T08:18:17.610Z,100712.56
2018-08-23T08:20:52.818Z,100716.19
2018-08-23T08:23:21.664Z,100719.70
2018-08-23T08:25:50.969Z,100718.83
2018-08-23T08:28:20.041Z,100718.03
2018-08-23T08:30:53.261Z,100714.41
2018-08-23T08:33:23.096Z,100714.23
2018-08-23T08:35:55.910Z,100710.06
2018-08-23T08:38:25.165Z,100712.23
2018-08-23T08:40:55.095Z,100709.94
2018-08-23T08:43:24.233Z,100710.23
2018-08-23T08:45:59.147Z,100705.26
2018-08-23T08:48:30.835Z,100700.03
2018-08-23T08:51:17.090Z,100701.94
2018-08-23T08:53:46.436Z,100699.44
2018-08-23T08:56:15.614Z,100694.84
2018-08-23T08:58:44.536Z,100695.03
2018-08-23T09:01:13.297Z,100684.68
2018-08-23T09:03:42.219Z,100685.68
2018-08-23T09:06:11.880Z,100688.89
2018-08-23T09:08:40.646Z,100693.48
2018-08-23T09:11:09.451Z,100686.02
2018-08-23T09:13:43.629Z,100681.86
2018-08-23T09:16:13.165Z,100675.08
2018-08-23T09:18:45.825Z,100675.91
2018-08-23T09:21:14.989Z,100674.32
2018-08-23T09:23:44.033Z,100678.53
2018-08-23T09:26:12.711Z,100675.80
2018-08-23T09:28:41.350Z,100669.64
2018-08-23T09:31:10.743Z,100674.28
2018-08-23T09:33:39.392Z,100675.43
2018-08-23T09:36:08.097Z,100670.27
2018-08-23T09:38:36.976Z,100666.70
2018-08-23T09:41:05.803Z,100664.60
2018-08-23T09:43:34.749Z,100666.67
2018-08-23T09:46:03.777Z,100661.76
2018-08-23T09:48:32.558Z,100668.88
2018-08-23T09:51:01.397Z,100665.84
2018-08-23T09:53:30.783Z,100658.38
2018-08-23T09:55:59.555Z,100657.68
2018-08-23T09:58:34.143Z,100657.61
2018-08-23T10:01:08.166Z,100657.05
2018-08-23T10:03:42.142Z,100657.39
2018-08-23T10:06:16.237Z,100662.35
2018-08-23T10:08:51.254Z,100657.37
2018-08-23T10:11:25.308Z,100660.26
2018-08-23T10:13:59.447Z,100653.72
2018-08-23T10:16:33.532Z,100651.95
2018-08-23T10:19:07.441Z,100648.44
2018-08-23T10:21:41.512Z,100644.55
2018-08-23T10:24:16.865Z,100644.14
2018-08-23T10:26:46.030Z,100644.63
2018-08-23T10:29:15.122Z,100646.72
2018-08-23T10:31:43.879Z,100637.09
2018-08-23T10:34:13.526Z,100638.21
2018-08-23T10:36:42.257Z,100634.77
2018-08-23T10:39:13.516Z,100643.09
2018-08-23T10:41:43.011Z,100639.69
2018-08-23T10:44:12.337Z,100644.17
2018-08-23T10:46:46.237Z,100637.34
2018-08-23T10:49:15.873Z,100641.34
2018-08-23T10:51:44.678Z,100638.65
2018-08-23T10:54:13.917Z,100646.08
2018-08-23T10:56:42.897Z,100634.95
2018-08-23T10:59:11.881Z,100649.44
2018-08-23T11:01:41.449Z,100636.55
2018-08-23T11:04:11.015Z,100630.58
2018-08-23T11:06:45.192Z,100631.86
2018-08-23T11:09:19.024Z,100630.81
2018-08-23T11:11:50.797Z,100626.60
2018-08-23T11:14:24.692Z,100629.80
2018-08-23T11:16:59.421Z,100635.74
2018-08-23T11:19:33.181Z,100625.14
2018-08-23T11:22:02.437Z,100621.95
2018-08-23T11:24:32.162Z,100614.55
2018-08-23T11:27:00.950Z,100628.75
2018-08-23T11:29:29.980Z,100621.91
2018-08-23T11:31:58.727Z,100621.11
2018-08-23T11:34:34.079Z,100616.63
2018-08-23T11:37:02.866Z,100621.91
2018-08-23T11:39:32.214Z,100622.36
2018-08-23T11:42:01.080Z,100619.61
2018-08-23T11:44:29.861Z,100614.49
2018-08-23T11:46:58.590Z,100606.37
2018-08-23T11:49:27.411Z,100608.31
2018-08-23T11:51:56.220Z,100615.68
2018-08-23T11:54:24.877Z,100614.69
2018-08-23T11:56:53.666Z,100606.09
2018-08-23T11:59:22.594Z,100614.33
2018-08-23T12:01:51.817Z,100607.20
2018-08-23T12:04:20.968Z,100610.45
2018-08-23T12:06:53.877Z,100622.34
2018-08-23T12:09:26.858Z,100617.54
2018-08-23T12:11:55.964Z,100606.58
2018-08-23T12:14:25.348Z,100597.70
2018-08-23T12:16:54.421Z,100607.28
2018-08-23T12:19:23.949Z,100602.16
2018-08-23T12:21:53.187Z,100606.35
2018-08-23T12:24:22.255Z,100613.89
2018-08-23T12:26:51.314Z,100612.97
2018-08-23T12:29:20.088Z,100613.79
2018-08-23T12:31:49.037Z,100611.17
2018-08-23T12:34:28.652Z,100613.67
2018-08-23T12:37:02.751Z,100603.17
2018-08-23T12:39:36.705Z,100610.34
2018-08-23T12:42:11.621Z,100606.92
2018-08-23T12:44:54.010Z,100603.44
2018-08-23T12:47:23.355Z,100599.91
2018-08-23T12:49:52.507Z,100594.81
2018-08-23T12:52:21.321Z,100597.16
2018-08-23T12:54:50.170Z,100598.34
2018-08-23T12:57:19.829Z,100581.36
2018-08-23T12:59:48.685Z,100583.44
2018-08-23T13:02:17.703Z,100587.98
2018-08-23T13:04:46.749Z,100583.55
2018-08-23T13:07:15.649Z,100582.80
2018-08-23T13:09:44.821Z,100580.83
2018-08-23T13:12:13.891Z,100579.04
2018-08-23T13:14:42.465Z,100582.77
2018-08-23T13:17:12.563Z,100577.11
2018-08-23T13:19:41.508Z,100574.94
2018-08-23T13:22:10.172Z,100566.39
2018-08-23T13:24:49.512Z,100563.29
2018-08-23T13:27:18.281Z,100561.86
2018-08-23T13:29:47.724Z,100560.97
2018-08-23T13:32:17.249Z,100559.70
2018-08-23T13:34:46.278Z,100557.89
2018-08-23T13:37:14.927Z,100546.14
2018-08-23T13:39:44.403Z,100558.58
2018-08-23T13:42:13.197Z,100551.20
2018-08-23T13:44:42.351Z,100537.40
2018-08-23T13:47:11.361Z,100541.72
2018-08-23T13:49:40.524Z,100536.56
2018-08-23T13:52:09.548Z,100543.75
2018-08-23T13:54:39.364Z,100536.72
2018-08-23T13:57:08.213Z,100528.11
2018-08-23T13:59:37.583Z,100529.48
2018-08-23T14:02:06.683Z,100524.61
2018-08-23T14:04:35.459Z,100517.52
2018-08-23T14:07:08.668Z,100511.08
2018-08-23T14:09:40.639Z,100518.77
2018-08-23T14:12:10.058Z,100508.88
2018-08-23T14:14:40.079Z,100508.63
2018-08-23T14:17:09.119Z,100520.52
2018-08-23T14:19:38.214Z,100499.13
2018-08-23T14:22:07.224Z,100502.55
2018-08-23T14:24:36.325Z,100497.20
2018-08-23T14:27:05.191Z,100494.99
2018-08-23T14:29:33.910Z,100498.05
2018-08-23T14:32:03.189Z,100484.73
2018-08-23T14:34:32.102Z,100476.60
2018-08-23T14:37:01.922Z,100478.09
2018-08-23T14:39:30.673Z,100477.95
2018-08-23T14:41:59.716Z,100479.16
2018-08-23T14:44:28.550Z,100478.92
2018-08-23T14:47:09.456Z,100481.74
2018-08-23T14:49:38.521Z,100477.17
2018-08-23T14:52:07.368Z,100476.54
2018-08-23T14:54:41.606Z,100478.77
2018-08-23T14:57:15.794Z,100472.59
2018-08-23T14:59:51.164Z,100474.58
2018-08-23T15:02:19.935Z,100468.20
2018-08-23T15:04:49.362Z,100475.48
2018-08-23T15:07:18.502Z,100469.98
2018-08-23T15:09:47.540Z,100461.34
2018-08-23T15:12:16.333Z,100467.13
2018-08-23T15:14:45.106Z,100466.55
2018-08-23T15:17:14.121Z,100469.70
2018-08-23T15:19:42.955Z,100468.82
2018-08-23T15:22:11.852Z,100462.33
2018-08-23T15:24:40.894Z,100473.48
2018-08-23T15:27:12.712Z,100476.22
2018-08-23T15:29:41.796Z,100466.65
2018-08-23T15:32:11.299Z,100464.60
2018-08-23T15:34:41.020Z,100468.94
2018-08-23T15:37:10.105Z,100468.65
2018-08-23T15:39:40.673Z,100475.44
2018-08-23T15:42:09.670Z,100471.81
2018-08-23T15:44:38.408Z,100470.61
2018-08-23T15:47:07.122Z,100457.73
2018-08-23T15:49:36.484Z,100463.17
2018-08-23T15:52:05.368Z,100462.89
2018-08-23T15:54:34.388Z,100459.05
2018-08-23T15:57:03.079Z,100450.48
2018-08-23T15:59:32.941Z,100458.55
2018-08-23T16:02:01.899Z,100460.66
2018-08-23T16:04:30.782Z,100450.30
2018-08-23T16:06:59.568Z,100453.28
2018-08-23T16:09:28.822Z,100456.09
2018-08-23T16:11:58.013Z,100456.19
2018-08-23T16:14:27.118Z,100456.50
2018-08-23T16:17:01.233Z,100452.75
2018-08-23T16:19:35.068Z,100450.16
2018-08-23T16:22:03.986Z,100444.80
2018-08-23T16:24:32.791Z,100444.95
2018-08-23T16:27:04.686Z,100447.34
2018-08-23T16:29:33.301Z,100443.49
2018-08-23T16:32:03.125Z,100445.82
2018-08-23T16:34:31.684Z,100443.02
2018-08-23T16:37:00.601Z,100445.76
2018-08-23T16:39:29.322Z,100439.12
2018-08-23T16:41:58.235Z,100432.58
2018-08-23T16:44:26.983Z,100433.91
2018-08-23T16:46:56.860Z,100440.34
2018-08-23T16:49:26.007Z,100433.07
2018-08-23T16:51:55.003Z,100434.07
2018-08-23T16:54:24.184Z,100426.14
2018-08-23T16:56:53.178Z,100427.73
2018-08-23T16:59:22.088Z,100427.84
2018-08-23T17:01:50.927Z,100424.56
2018-08-23T17:04:20.137Z,100425.80
2018-08-23T17:06:48.966Z,100426.08
2018-08-23T17:09:17.821Z,100429.50
2018-08-23T17:11:47.039Z,100426.71
2018-08-23T17:14:16.370Z,100420.20
2018-08-23T17:16:50.283Z,100421.45
2018-08-23T17:19:19.329Z,100418.15
2018-08-23T17:21:49.027Z,100418.68
2018-08-23T17:24:18.545Z,100421.84
2018-08-23T17:26:47.601Z,100413.45
2018-08-23T17:29:16.570Z,100414.30
2018-08-23T17:31:46.413Z,100416.04
2018-08-23T17:34:15.704Z,100414.17
2018-08-23T17:36:44.501Z,100418.34
2018-08-23T17:39:13.165Z,100414.69
2018-08-23T17:41:42.635Z,100414.19
2018-08-23T17:44:11.553Z,100421.74
2018-08-23T17:46:40.386Z,100418.20
2018-08-23T17:49:10.113Z,100421.27
2018-08-23T17:51:39.254Z,100427.59
2018-08-23T17:54:08.241Z,100429.39
2018-08-23T17:56:37.073Z,100425.33
2018-08-23T17:59:05.928Z,100428.25
2018-08-23T18:01:35.065Z,100428.86
2018-08-23T18:04:04.642Z,100440.40
2018-08-23T18:06:34.010Z,100432.50
2018-08-23T18:09:03.072Z,100427.95
2018-08-23T18:11:32.209Z,100433.16
2018-08-23T18:14:01.615Z,100437.61
2018-08-23T18:16:35.733Z,100441.96
2018-08-23T18:19:04.958Z,100433.47
2018-08-23T18:21:33.895Z,100439.92
2018-08-23T18:24:02.861Z,100441.62
2018-08-23T18:26:32.080Z,100447.73
2018-08-23T18:29:02.116Z,100443.58
2018-08-23T18:31:31.351Z,100432.87
2018-08-23T18:34:00.407Z,100442.59
2018-08-23T18:36:29.592Z,100441.13
2018-08-23T18:38:58.566Z,100444.05
2018-08-23T18:41:27.615Z,100443.29
2018-08-23T18:43:57.031Z,100439.48
2018-08-23T18:46:26.327Z,100441.39
2018-08-23T18:48:58.584Z,100436.65
2018-08-23T18:51:29.558Z,100434.68
2018-08-23T18:53:59.151Z,100440.87
2018-08-23T18:56:29.242Z,100443.61
2018-08-23T18:58:58.665Z,100440.44
2018-08-23T19:01:27.403Z,100435.80
2018-08-23T19:03:56.396Z,100436.87
2018-08-23T19:06:30.445Z,100436.10
2018-08-23T19:08:59.427Z,100438.51
2018-08-23T19:11:28.081Z,100442.05
2018-08-23T19:13:56.821Z,100436.94
2018-08-23T19:16:30.672Z,100436.63
2018-08-23T19:18:59.868Z,100438.40
2018-08-23T19:21:28.716Z,100444.23
2018-08-23T19:23:57.602Z,100440.47
2018-08-23T19:26:26.369Z,100437.63
2018-08-23T19:28:55.770Z,100436.42
2018-08-23T19:31:24.646Z,100434.52
2018-08-23T19:33:53.528Z,100436.17
2018-08-23T19:36:22.111Z,100436.03
2018-08-23T19:38:51.262Z,100440.73
2018-08-23T19:41:20.587Z,100441.70
2018-08-23T19:43:49.206Z,100444.23
2018-08-23T19:46:23.212Z,100444.77
2018-08-23T19:48:57.269Z,100434.30
2018-08-23T19:51:26.757Z,100439.77
2018-08-23T19:53:56.258Z,100432.22
2018-08-23T19:56:26.152Z,100433.55
2018-08-23T19:58:55.185Z,100428.44
2018-08-23T20:01:23.848Z,100421.86
2018-08-23T20:04:03.178Z,100427.80
2018-08-23T20:06:45.774Z,100426.47
2018-08-23T20:09:20.306Z,100426.56
2018-08-23T20:11:55.541Z,100425.35
2018-08-23T20:14:30.978Z,100422.50
2018-08-23T20:17:03.796Z,100427.11
2018-08-23T20:19:35.337Z,100419.42
2018-08-23T20:22:11.972Z,100435.28
2018-08-23T20:24:45.373Z,100430.91
2018-08-23T20:27:20.376Z,100441.20
2018-08-23T20:30:02.952Z,100433.98
2018-08-23T20:32:38.006Z,100437.97
2018-08-23T20:35:08.280Z,100442.25
2018-08-23T20:37:39.608Z,100438.28
2018-08-23T20:42:47.498Z,100444.15
2018-08-23T20:45:22.236Z,100438.75
2018-08-23T20:48:00.535Z,100439.59
2018-08-23T20:50:38.256Z,100434.44
2018-08-23T20:53:12.525Z,100438.53
2018-08-23T20:55:47.448Z,100433.42
2018-08-23T20:58:20.342Z,100435.53
2018-08-23T21:00:54.174Z,100434.41
2018-08-23T21:03:26.173Z,100433.20
2018-08-23T21:06:00.676Z,100438.72
2018-08-23T21:08:37.395Z,100437.23
2018-08-23T21:11:15.281Z,100441.44
2018-08-23T21:13:48.106Z,100436.70
2018-08-23T21:16:25.395Z,100439.45
2018-08-23T21:18:58.300Z,100445.25
2018-08-23T21:21:26.975Z,100433.45
2018-08-23T21:23:56.231Z,100434.78
2018-08-23T21:26:25.068Z,100438.88
2018-08-23T21:28:54.649Z,100424.36
2018-08-23T21:31:23.260Z,100417.77
2018-08-23T21:33:52.052Z,100413.77
2018-08-23T21:36:20.837Z,100417.30
2018-08-23T21:38:49.900Z,100422.13
2018-08-23T21:41:19.567Z,100418.91
2018-08-23T21:43:48.265Z,100423.66
2018-08-23T21:46:16.829Z,100423.53
2018-08-23T21:48:45.441Z,100419.53
2018-08-23T21:51:14.381Z,100421.36
2018-08-23T21:53:43.674Z,100414.32
2018-08-23T21:56:17.748Z,100414.14
2018-08-23T21:58:46.378Z,100415.75
2018-08-23T22:01:15.999Z,100416.80
2018-08-23T22:03:44.650Z,100411.09
2018-08-23T22:06:13.377Z,100414.14
2018-08-23T22:08:42.423Z,100412.43
2018-08-23T22:11:11.032Z,100414.91
2018-08-23T22:13:40.181Z,100416.03
2018-08-23T22:16:09.217Z,100410.91
2018-08-23T22:18:38.642Z,100414.79
2018-08-23T22:21:07.265Z,100416.62
2018-08-23T22:23:35.910Z,100409.77
2018-08-23T22:26:05.263Z,100412.93
2018-08-23T22:28:33.926Z,100411.91
2018-08-23T22:31:02.479Z,100418.84
2018-08-23T22:33:31.313Z,100410.11
2018-08-23T22:36:00.734Z,100407.47
2018-08-23T22:38:29.689Z,100416.30
2018-08-23T22:40:58.570Z,100418.44
2018-08-23T22:43:27.218Z,100408.37
2018-08-23T22:45:55.970Z,100413.79
2018-08-23T22:48:24.668Z,100415.86
2018-08-23T22:50:53.865Z,100403.69
2018-08-23T22:53:22.381Z,100406.29
2018-08-23T22:55:51.089Z,100403.73
2018-08-23T22:58:19.868Z,100406.41
2018-08-23T23:00:49.204Z,100408.14
2018-08-23T23:03:23.266Z,100407.06
2018-08-23T23:05:52.676Z,100416.76
2018-08-23T23:08:21.201Z,100409.27
2018-08-23T23:10:49.846Z,100413.54
2018-08-23T23:13:18.813Z,100407.27
2018-08-23T23:15:47.397Z,100409.13
2018-08-23T23:18:15.993Z,100410.33
2018-08-23T23:20:44.864Z,100419.87
2018-08-23T23:23:13.524Z,100423.70
2018-08-23T23:25:42.197Z,100431.42
2018-08-23T23:28:10.747Z,100429.95
2018-08-23T23:30:39.325Z,100431.45
2018-08-23T23:33:07.885Z,100436.40
2018-08-23T23:35:36.513Z,100435.36
2018-08-23T23:38:05.876Z,100431.56
2018-08-23T23:40:34.482Z,100432.48
2018-08-23T23:43:03.288Z,100424.41
2018-08-23T23:45:32.001Z,100430.13
2018-08-23T23:48:00.773Z,100422.81
2018-08-23T23:50:29.875Z,100424.89
2018-08-23T23:52:58.650Z,100424.34
2018-08-23T23:55:27.501Z,100416.27
2018-08-23T23:57:56.337Z,100420.17
